sensor_id;sensor_type;location;lat;lon;timestamp;P1;durP1;ratioP1;P2;durP2;ratioP2
15921;SDS011;8060;50.948;3.146;2022-12-16T08:02:52;22.00;;;9.07;;
15921;SDS011;8060;50.948;3.146;2022-12-16T08:21:10;18.83;;;10.97;;
15921;SDS011;8060;50.948;3.146;2022-12-16T08:23:55;23.50;;;11.03;;
15921;SDS011;8060;50.948;3.146;2022-12-16T08:26:41;22.30;;;12.10;;
15921;SDS011;8060;50.948;3.146;2022-12-16T08:29:27;23.37;;;12.43;;
15921;SDS011;8060;50.948;3.146;2022-12-16T08:32:12;24.03;;;11.57;;
15921;SDS011;8060;50.948;3.146;2022-12-16T08:34:59;21.40;;;11.27;;
15921;SDS011;8060;50.948;3.146;2022-12-16T08:37:46;19.33;;;11.17;;
15921;SDS011;8060;50.948;3.146;2022-12-16T08:40:39;25.30;;;12.27;;
15921;SDS011;8060;50.948;3.146;2022-12-16T08:43:26;28.57;;;12.50;;
15921;SDS011;8060;50.948;3.146;2022-12-16T08:46:11;21.30;;;11.90;;
15921;SDS011;8060;50.948;3.146;2022-12-16T08:49:11;29.17;;;12.97;;
15921;SDS011;8060;50.948;3.146;2022-12-16T08:51:56;23.97;;;14.60;;
15921;SDS011;8060;50.948;3.146;2022-12-16T08:54:43;25.97;;;14.17;;
15921;SDS011;8060;50.948;3.146;2022-12-16T08:57:28;31.27;;;14.80;;
15921;SDS011;8060;50.948;3.146;2022-12-16T09:00:14;33.43;;;16.10;;
15921;SDS011;8060;50.948;3.146;2022-12-16T09:03:00;30.37;;;16.03;;
15921;SDS011;8060;50.948;3.146;2022-12-16T09:05:46;33.50;;;16.90;;
15921;SDS011;8060;50.948;3.146;2022-12-16T09:08:31;24.63;;;16.07;;
15921;SDS011;8060;50.948;3.146;2022-12-16T09:11:18;26.27;;;14.73;;
15921;SDS011;8060;50.948;3.146;2022-12-16T09:14:03;31.53;;;15.03;;
15921;SDS011;8060;50.948;3.146;2022-12-16T09:16:48;27.67;;;15.10;;
15921;SDS011;8060;50.948;3.146;2022-12-16T09:19:34;30.70;;;15.63;;
15921;SDS011;8060;50.948;3.146;2022-12-16T09:22:20;27.27;;;15.23;;
15921;SDS011;8060;50.948;3.146;2022-12-16T09:25:06;25.50;;;15.70;;
15921;SDS011;8060;50.948;3.146;2022-12-16T09:27:53;37.70;;;17.53;;
15921;SDS011;8060;50.948;3.146;2022-12-16T09:30:39;27.90;;;16.23;;
15921;SDS011;8060;50.948;3.146;2022-12-16T09:33:24;30.87;;;15.67;;
15921;SDS011;8060;50.948;3.146;2022-12-16T09:36:24;26.07;;;15.00;;
15921;SDS011;8060;50.948;3.146;2022-12-16T09:39:09;31.50;;;15.57;;
15921;SDS011;8060;50.948;3.146;2022-12-16T09:41:57;28.50;;;15.33;;
15921;SDS011;8060;50.948;3.146;2022-12-16T09:44:53;32.87;;;16.03;;
15921;SDS011;8060;50.948;3.146;2022-12-16T09:47:47;36.03;;;16.67;;
15921;SDS011;8060;50.948;3.146;2022-12-16T09:50:38;28.10;;;16.93;;
15921;SDS011;8060;50.948;3.146;2022-12-16T09:53:38;28.23;;;16.03;;
15921;SDS011;8060;50.948;3.146;2022-12-16T09:56:27;31.53;;;15.77;;
15921;SDS011;8060;50.948;3.146;2022-12-16T09:59:14;27.97;;;15.77;;
15921;SDS011;8060;50.948;3.146;2022-12-16T10:02:08;28.30;;;15.17;;
15921;SDS011;8060;50.948;3.146;2022-12-16T10:04:55;31.03;;;14.70;;
15921;SDS011;8060;50.948;3.146;2022-12-16T10:07:41;24.13;;;13.60;;
15921;SDS011;8060;50.948;3.146;2022-12-16T10:10:33;23.10;;;13.70;;
15921;SDS011;8060;50.948;3.146;2022-12-16T10:13:30;24.63;;;13.23;;
15921;SDS011;8060;50.948;3.146;2022-12-16T10:16:25;24.50;;;14.23;;
15921;SDS011;8060;50.948;3.146;2022-12-16T10:19:25;22.07;;;13.23;;
15921;SDS011;8060;50.948;3.146;2022-12-16T10:22:24;27.40;;;12.50;;
15921;SDS011;8060;50.948;3.146;2022-12-16T10:25:17;22.93;;;13.47;;
15921;SDS011;8060;50.948;3.146;2022-12-16T10:28:10;21.60;;;12.70;;
15921;SDS011;8060;50.948;3.146;2022-12-16T10:31:00;22.73;;;12.90;;
15921;SDS011;8060;50.948;3.146;2022-12-16T10:33:48;20.83;;;13.57;;
15921;SDS011;8060;50.948;3.146;2022-12-16T10:36:35;21.00;;;13.17;;
15921;SDS011;8060;50.948;3.146;2022-12-16T10:39:25;20.57;;;11.40;;
15921;SDS011;8060;50.948;3.146;2022-12-16T10:42:17;21.17;;;11.03;;
15921;SDS011;8060;50.948;3.146;2022-12-16T10:45:12;20.37;;;11.53;;
15921;SDS011;8060;50.948;3.146;2022-12-16T10:48:05;20.33;;;11.33;;
15921;SDS011;8060;50.948;3.146;2022-12-16T10:50:52;25.57;;;11.90;;
15921;SDS011;8060;50.948;3.146;2022-12-16T10:53:39;23.17;;;13.67;;
15921;SDS011;8060;50.948;3.146;2022-12-16T10:56:31;26.83;;;13.03;;
15921;SDS011;8060;50.948;3.146;2022-12-16T10:59:34;26.73;;;13.00;;
15921;SDS011;8060;50.948;3.146;2022-12-16T11:02:22;20.60;;;10.93;;
15921;SDS011;8060;50.948;3.146;2022-12-16T11:05:29;16.77;;;9.63;;
15921;SDS011;8060;50.948;3.146;2022-12-16T11:08:22;19.13;;;9.57;;
15921;SDS011;8060;50.948;3.146;2022-12-16T11:11:19;13.47;;;8.33;;
15921;SDS011;8060;50.948;3.146;2022-12-16T11:14:16;14.37;;;7.80;;
15921;SDS011;8060;50.948;3.146;2022-12-16T11:17:12;18.10;;;7.97;;
15921;SDS011;8060;50.948;3.146;2022-12-16T11:20:06;13.30;;;6.60;;
15921;SDS011;8060;50.948;3.146;2022-12-16T11:23:11;13.87;;;6.53;;
15921;SDS011;8060;50.948;3.146;2022-12-16T11:26:04;12.13;;;6.13;;
15921;SDS011;8060;50.948;3.146;2022-12-16T11:29:10;10.93;;;5.30;;
15921;SDS011;8060;50.948;3.146;2022-12-16T11:31:58;12.43;;;5.23;;
15921;SDS011;8060;50.948;3.146;2022-12-16T11:34:48;9.73;;;5.40;;
15921;SDS011;8060;50.948;3.146;2022-12-16T11:37:37;11.83;;;5.37;;
15921;SDS011;8060;50.948;3.146;2022-12-16T11:40:34;9.30;;;5.40;;
15921;SDS011;8060;50.948;3.146;2022-12-16T11:43:21;11.40;;;6.37;;
15921;SDS011;8060;50.948;3.146;2022-12-16T11:46:12;12.67;;;6.03;;
15921;SDS011;8060;50.948;3.146;2022-12-16T11:49:05;12.57;;;6.63;;
15921;SDS011;8060;50.948;3.146;2022-12-16T11:51:59;11.33;;;6.60;;
15921;SDS011;8060;50.948;3.146;2022-12-16T11:55:04;13.80;;;7.23;;
15921;SDS011;8060;50.948;3.146;2022-12-16T11:58:19;13.73;;;7.90;;
15921;SDS011;8060;50.948;3.146;2022-12-16T12:01:16;15.23;;;8.50;;
15921;SDS011;8060;50.948;3.146;2022-12-16T12:04:10;15.33;;;7.77;;
15921;SDS011;8060;50.948;3.146;2022-12-16T12:07:09;20.80;;;9.30;;
15921;SDS011;8060;50.948;3.146;2022-12-16T12:10:14;14.90;;;8.47;;
15921;SDS011;8060;50.948;3.146;2022-12-16T12:13:10;13.70;;;7.40;;
15921;SDS011;8060;50.948;3.146;2022-12-16T12:16:12;16.50;;;7.00;;
15921;SDS011;8060;50.948;3.146;2022-12-16T12:19:09;12.73;;;6.33;;
15921;SDS011;8060;50.948;3.146;2022-12-16T12:22:00;12.07;;;5.87;;
15921;SDS011;8060;50.948;3.146;2022-12-16T12:24:49;9.60;;;5.37;;
15921;SDS011;8060;50.948;3.146;2022-12-16T12:27:40;11.50;;;5.70;;
15921;SDS011;8060;50.948;3.146;2022-12-16T12:30:36;12.27;;;5.80;;
15921;SDS011;8060;50.948;3.146;2022-12-16T12:33:30;14.83;;;5.93;;
15921;SDS011;8060;50.948;3.146;2022-12-16T12:36:23;14.63;;;6.10;;
15921;SDS011;8060;50.948;3.146;2022-12-16T12:39:16;13.80;;;6.73;;
15921;SDS011;8060;50.948;3.146;2022-12-16T12:42:09;13.03;;;6.17;;
15921;SDS011;8060;50.948;3.146;2022-12-16T12:45:18;9.97;;;5.57;;
15921;SDS011;8060;50.948;3.146;2022-12-16T12:48:17;9.70;;;6.17;;
15921;SDS011;8060;50.948;3.146;2022-12-16T12:51:10;12.90;;;4.90;;
15921;SDS011;8060;50.948;3.146;2022-12-16T12:54:05;8.73;;;4.97;;
15921;SDS011;8060;50.948;3.146;2022-12-16T12:56:58;8.80;;;4.40;;
15921;SDS011;8060;50.948;3.146;2022-12-16T12:59:47;13.43;;;7.07;;
15921;SDS011;8060;50.948;3.146;2022-12-16T13:02:43;8.53;;;4.63;;
15921;SDS011;8060;50.948;3.146;2022-12-16T13:05:34;9.10;;;4.77;;
15921;SDS011;8060;50.948;3.146;2022-12-16T13:08:31;10.07;;;4.73;;
15921;SDS011;8060;50.948;3.146;2022-12-16T13:11:23;12.70;;;4.93;;
15921;SDS011;8060;50.948;3.146;2022-12-16T13:17:27;9.90;;;4.77;;
15921;SDS011;8060;50.948;3.146;2022-12-16T13:20:33;11.20;;;4.80;;
15921;SDS011;8060;50.948;3.146;2022-12-16T13:23:26;9.00;;;4.47;;
15921;SDS011;8060;50.948;3.146;2022-12-16T13:26:21;12.27;;;5.07;;
15921;SDS011;8060;50.948;3.146;2022-12-16T13:29:12;8.77;;;5.17;;
15921;SDS011;8060;50.948;3.146;2022-12-16T13:32:11;13.67;;;5.30;;
15921;SDS011;8060;50.948;3.146;2022-12-16T13:35:02;8.77;;;4.40;;
15921;SDS011;8060;50.948;3.146;2022-12-16T13:37:50;10.53;;;4.97;;
15921;SDS011;8060;50.948;3.146;2022-12-16T13:40:51;7.00;;;4.50;;
15921;SDS011;8060;50.948;3.146;2022-12-16T13:43:55;9.60;;;5.03;;
15921;SDS011;8060;50.948;3.146;2022-12-16T13:46:43;12.77;;;5.70;;
15921;SDS011;8060;50.948;3.146;2022-12-16T13:49:40;8.47;;;5.30;;
15921;SDS011;8060;50.948;3.146;2022-12-16T13:52:36;10.77;;;4.97;;
15921;SDS011;8060;50.948;3.146;2022-12-16T13:55:29;12.00;;;5.67;;
15921;SDS011;8060;50.948;3.146;2022-12-16T13:58:23;8.57;;;5.40;;
15921;SDS011;8060;50.948;3.146;2022-12-16T14:01:21;13.47;;;6.20;;
15921;SDS011;8060;50.948;3.146;2022-12-16T14:04:13;10.03;;;5.90;;
15921;SDS011;8060;50.948;3.146;2022-12-16T14:07:07;11.13;;;5.23;;
15921;SDS011;8060;50.948;3.146;2022-12-16T14:09:53;9.63;;;5.17;;
15921;SDS011;8060;50.948;3.146;2022-12-16T14:12:55;7.27;;;4.50;;
15921;SDS011;8060;50.948;3.146;2022-12-16T14:15:53;9.37;;;4.37;;
15921;SDS011;8060;50.948;3.146;2022-12-16T14:18:50;9.20;;;4.40;;
15921;SDS011;8060;50.948;3.146;2022-12-16T14:21:49;9.43;;;3.97;;
15921;SDS011;8060;50.948;3.146;2022-12-16T14:24:37;8.53;;;4.00;;
15921;SDS011;8060;50.948;3.146;2022-12-16T14:27:22;10.17;;;4.60;;
15921;SDS011;8060;50.948;3.146;2022-12-16T14:30:14;9.10;;;4.17;;
15921;SDS011;8060;50.948;3.146;2022-12-16T14:33:13;6.53;;;4.40;;
15921;SDS011;8060;50.948;3.146;2022-12-16T14:36:18;7.50;;;4.00;;
15921;SDS011;8060;50.948;3.146;2022-12-16T14:39:10;9.10;;;4.40;;
15921;SDS011;8060;50.948;3.146;2022-12-16T14:41:57;7.97;;;4.80;;
15921;SDS011;8060;50.948;3.146;2022-12-16T14:44:44;11.27;;;5.13;;
15921;SDS011;8060;50.948;3.146;2022-12-16T14:47:30;9.90;;;5.23;;
15921;SDS011;8060;50.948;3.146;2022-12-16T14:50:18;11.90;;;6.00;;
15921;SDS011;8060;50.948;3.146;2022-12-16T14:53:17;10.13;;;5.37;;
15921;SDS011;8060;50.948;3.146;2022-12-16T14:56:17;13.47;;;6.03;;
15921;SDS011;8060;50.948;3.146;2022-12-16T14:59:07;11.03;;;5.57;;
15921;SDS011;8060;50.948;3.146;2022-12-16T15:01:59;14.07;;;5.47;;
